sensor_id;sensor_type;location;lat;lon;timestamp;pressure;altitude;pressure_sealevel;temperature;humidity
13478;BME280;12598;62.382;17.344;2024-03-17T00:00:36;101748.44;;;19.12;17.85
13478;BME280;12598;62.382;17.344;2024-03-17T00:01:38;101751.13;;;19.12;17.62
13478;BME280;12598;62.382;17.344;2024-03-17T00:02:41;101750.31;;;19.11;17.70
13478;BME280;12598;62.382;17.344;2024-03-17T00:03:42;101751.13;;;19.12;17.91
13478;BME280;12598;62.382;17.344;2024-03-17T00:04:45;101758.47;;;19.10;17.76
13478;BME280;12598;62.382;17.344;2024-03-17T00:05:45;101760.16;;;19.11;17.48
13478;BME280;12598;62.382;17.344;2024-03-17T00:06:46;101754.94;;;19.09;17.47
13478;BME280;12598;62.382;17.344;2024-03-17T00:07:48;101765.66;;;19.09;18.12
13478;BME280;12598;62.382;17.344;2024-03-17T00:08:49;101763.97;;;19.08;17.53
13478;BME280;12598;62.382;17.344;2024-03-17T00:09:50;101768.47;;;19.08;17.96
13478;BME280;12598;62.382;17.344;2024-03-17T00:10:54;101765.78;;;19.08;17.94
13478;BME280;12598;62.382;17.344;2024-03-17T00:11:55;101770.16;;;19.09;17.79
13478;BME280;12598;62.382;17.344;2024-03-17T00:12:56;101759.97;;;19.03;17.73
13478;BME280;12598;62.382;17.344;2024-03-17T00:13:58;101773.97;;;19.06;18.00
13478;BME280;12598;62.382;17.344;2024-03-17T00:14:59;101773.97;;;19.06;17.63
13478;BME280;12598;62.382;17.344;2024-03-17T00:16:00;101775.78;;;19.06;17.83
13478;BME280;12598;62.382;17.344;2024-03-17T00:17:01;101775.78;;;19.06;17.52
13478;BME280;12598;62.382;17.344;2024-03-17T00:18:02;101791.88;;;19.06;17.79
13478;BME280;12598;62.382;17.344;2024-03-17T00:19:03;101783.00;;;19.05;17.33
13478;BME280;12598;62.382;17.344;2024-03-17T00:20:05;101784.81;;;19.05;17.32
13478;BME280;12598;62.382;17.344;2024-03-17T00:21:11;101790.88;;;19.07;17.49
13478;BME280;12598;62.382;17.344;2024-03-17T00:22:12;101791.88;;;19.06;17.54
13478;BME280;12598;62.382;17.344;2024-03-17T00:23:15;101793.72;;;19.05;18.09
13478;BME280;12598;62.382;17.344;2024-03-17T00:24:17;101799.06;;;19.05;18.02
13478;BME280;12598;62.382;17.344;2024-03-17T00:25:18;101789.44;;;19.03;17.82
13478;BME280;12598;62.382;17.344;2024-03-17T00:26:18;101800.91;;;19.05;17.32
13478;BME280;12598;62.382;17.344;2024-03-17T00:27:23;101811.50;;;19.06;17.88
13478;BME280;12598;62.382;17.344;2024-03-17T00:28:23;101804.44;;;19.05;17.54
13478;BME280;12598;62.382;17.344;2024-03-17T00:29:25;101798.47;;;19.02;17.61
13478;BME280;12598;62.382;17.344;2024-03-17T00:30:26;101812.59;;;19.04;17.99
13478;BME280;12598;62.382;17.344;2024-03-17T00:31:27;101817.84;;;19.05;17.72
13478;BME280;12598;62.382;17.344;2024-03-17T00:32:28;101817.13;;;19.03;17.92
13478;BME280;12598;62.382;17.344;2024-03-17T00:33:30;101815.28;;;19.04;17.71
13478;BME280;12598;62.382;17.344;2024-03-17T00:34:31;101822.75;;;19.00;17.62
13478;BME280;12598;62.382;17.344;2024-03-17T00:35:32;101822.84;;;18.99;17.90
13478;BME280;12598;62.382;17.344;2024-03-17T00:36:34;101826.97;;;19.03;17.59
13478;BME280;12598;62.382;17.344;2024-03-17T00:37:34;101827.84;;;19.03;18.19
13478;BME280;12598;62.382;17.344;2024-03-17T00:38:35;101817.75;;;18.96;17.86
13478;BME280;12598;62.382;17.344;2024-03-17T00:39:36;101836.88;;;19.02;17.69
13478;BME280;12598;62.382;17.344;2024-03-17T00:40:38;101837.84;;;19.01;18.09
13478;BME280;12598;62.382;17.344;2024-03-17T00:41:41;101838.56;;;19.03;17.65
13478;BME280;12598;62.382;17.344;2024-03-17T00:42:42;101845.03;;;19.01;17.59
13478;BME280;12598;62.382;17.344;2024-03-17T00:43:43;101843.22;;;19.01;17.66
13478;BME280;12598;62.382;17.344;2024-03-17T00:44:44;101834.81;;;18.95;17.74
13478;BME280;12598;62.382;17.344;2024-03-17T00:45:51;101841.16;;;18.94;17.90
13478;BME280;12598;62.382;17.344;2024-03-17T00:46:52;101848.41;;;19.03;17.59
13478;BME280;12598;62.382;17.344;2024-03-17T00:47:53;101849.41;;;19.02;17.79
13478;BME280;12598;62.382;17.344;2024-03-17T00:48:54;101850.38;;;19.01;17.83
13478;BME280;12598;62.382;17.344;2024-03-17T00:49:55;101861.09;;;19.01;17.56
13478;BME280;12598;62.382;17.344;2024-03-17T00:50:56;101854.91;;;19.00;17.97
13478;BME280;12598;62.382;17.344;2024-03-17T00:51:57;101855.03;;;18.99;18.01
13478;BME280;12598;62.382;17.344;2024-03-17T00:52:58;101858.56;;;18.99;17.40
13478;BME280;12598;62.382;17.344;2024-03-17T00:54:00;101860.38;;;18.99;17.67
13478;BME280;12598;62.382;17.344;2024-03-17T00:55:00;101863.06;;;18.99;17.46
13478;BME280;12598;62.382;17.344;2024-03-17T00:56:02;101857.69;;;18.99;17.75
13478;BME280;12598;62.382;17.344;2024-03-17T00:57:03;101859.91;;;18.94;17.81
13478;BME280;12598;62.382;17.344;2024-03-17T00:58:04;101866.72;;;18.98;17.52
13478;BME280;12598;62.382;17.344;2024-03-17T00:59:04;101848.59;;;18.90;17.89
13478;BME280;12598;62.382;17.344;2024-03-17T01:00:06;101851.16;;;18.92;17.83
13478;BME280;12598;62.382;17.344;2024-03-17T01:01:07;101862.34;;;18.97;17.52
13478;BME280;12598;62.382;17.344;2024-03-17T01:02:07;101866.13;;;18.94;17.89
13478;BME280;12598;62.382;17.344;2024-03-17T01:03:08;101867.84;;;18.95;17.76
13478;BME280;12598;62.382;17.344;2024-03-17T01:04:09;101874.03;;;18.96;17.55
13478;BME280;12598;62.382;17.344;2024-03-17T01:05:10;101870.53;;;18.95;17.55
13478;BME280;12598;62.382;17.344;2024-03-17T01:06:11;101866.13;;;18.94;17.50
13478;BME280;12598;62.382;17.344;2024-03-17T01:07:12;101871.34;;;18.96;17.71
13478;BME280;12598;62.382;17.344;2024-03-17T01:08:17;101869.66;;;18.95;17.98
13478;BME280;12598;62.382;17.344;2024-03-17T01:09:17;101868.94;;;18.93;17.95
13478;BME280;12598;62.382;17.344;2024-03-17T01:10:18;101872.34;;;18.95;17.53
13478;BME280;12598;62.382;17.344;2024-03-17T01:11:20;101872.59;;;18.92;17.81
13478;BME280;12598;62.382;17.344;2024-03-17T01:12:21;101870.63;;;18.94;18.05
13478;BME280;12598;62.382;17.344;2024-03-17T01:13:22;101863.56;;;18.93;17.66
13478;BME280;12598;62.382;17.344;2024-03-17T01:14:23;101875.16;;;18.93;17.94
13478;BME280;12598;62.382;17.344;2024-03-17T01:15:24;101880.63;;;18.92;17.54
13478;BME280;12598;62.382;17.344;2024-03-17T01:16:24;101862.63;;;18.83;17.81
13478;BME280;12598;62.382;17.344;2024-03-17T01:17:25;101863.88;;;18.79;17.67
13478;BME280;12598;62.382;17.344;2024-03-17T01:18:26;101886.09;;;18.90;17.46
13478;BME280;12598;62.382;17.344;2024-03-17T01:19:27;101885.28;;;18.90;17.37
13478;BME280;12598;62.382;17.344;2024-03-17T01:20:28;101883.56;;;18.89;17.81
13478;BME280;12598;62.382;17.344;2024-03-17T01:21:29;101890.63;;;18.90;17.45
13478;BME280;12598;62.382;17.344;2024-03-17T01:22:30;101884.91;;;18.83;17.76
13478;BME280;12598;62.382;17.344;2024-03-17T01:23:31;101902.31;;;18.89;17.94
13478;BME280;12598;62.382;17.344;2024-03-17T01:24:32;101897.94;;;18.88;17.72
13478;BME280;12598;62.382;17.344;2024-03-17T01:25:34;101895.13;;;18.89;17.62
13478;BME280;12598;62.382;17.344;2024-03-17T01:26:38;101901.34;;;18.90;17.63
13478;BME280;12598;62.382;17.344;2024-03-17T01:27:39;101891.38;;;18.81;17.73
13478;BME280;12598;62.382;17.344;2024-03-17T01:28:40;101906.72;;;18.90;17.48
13478;BME280;12598;62.382;17.344;2024-03-17T01:29:44;101900.63;;;18.88;17.64
13478;BME280;12598;62.382;17.344;2024-03-17T01:30:44;101909.38;;;18.90;17.80
13478;BME280;12598;62.382;17.344;2024-03-17T01:31:47;101909.50;;;18.88;17.31
13478;BME280;12598;62.382;17.344;2024-03-17T01:32:50;101905.97;;;18.88;18.04
13478;BME280;12598;62.382;17.344;2024-03-17T01:33:51;101909.50;;;18.88;17.87
13478;BME280;12598;62.382;17.344;2024-03-17T01:34:52;101902.84;;;18.83;17.55
13478;BME280;12598;62.382;17.344;2024-03-17T01:35:53;101901.84;;;18.84;17.93
13478;BME280;12598;62.382;17.344;2024-03-17T01:36:54;101914.03;;;18.88;17.74
13478;BME280;12598;62.382;17.344;2024-03-17T01:37:55;101915.00;;;18.87;17.60
13478;BME280;12598;62.382;17.344;2024-03-17T01:38:56;101915.97;;;18.86;17.80
13478;BME280;12598;62.382;17.344;2024-03-17T01:40:00;101908.91;;;18.85;17.55
13478;BME280;12598;62.382;17.344;2024-03-17T01:41:01;101907.94;;;18.86;17.50
13478;BME280;12598;62.382;17.344;2024-03-17T01:42:02;101912.81;;;18.81;17.49
13478;BME280;12598;62.382;17.344;2024-03-17T01:43:04;101916.97;;;18.85;17.92
13478;BME280;12598;62.382;17.344;2024-03-17T01:44:05;101911.72;;;18.83;17.62
13478;BME280;12598;62.382;17.344;2024-03-17T01:45:26;101926.44;;;18.89;17.74
13478;BME280;12598;62.382;17.344;2024-03-17T01:46:27;101917.44;;;18.90;17.92
13478;BME280;12598;62.382;17.344;2024-03-17T01:47:28;101919.38;;;18.88;17.78
13478;BME280;12598;62.382;17.344;2024-03-17T01:48:29;101917.56;;;18.77;17.57
13478;BME280;12598;62.382;17.344;2024-03-17T01:49:31;101935.72;;;18.85;17.32
13478;BME280;12598;62.382;17.344;2024-03-17T01:50:35;101928.03;;;18.80;17.93
13478;BME280;12598;62.382;17.344;2024-03-17T01:51:36;101924.78;;;18.77;17.49
13478;BME280;12598;62.382;17.344;2024-03-17T01:52:38;101934.00;;;18.84;17.48
13478;BME280;12598;62.382;17.344;2024-03-17T01:53:39;101943.28;;;18.80;17.86
13478;BME280;12598;62.382;17.344;2024-03-17T01:54:41;101937.66;;;18.83;17.42
13478;BME280;12598;62.382;17.344;2024-03-17T01:55:43;101946.69;;;18.82;17.92
13478;BME280;12598;62.382;17.344;2024-03-17T01:56:45;101946.69;;;18.82;17.96
13478;BME280;12598;62.382;17.344;2024-03-17T01:57:46;101946.69;;;18.82;17.52
13478;BME280;12598;62.382;17.344;2024-03-17T01:58:47;101947.66;;;18.81;17.95
13478;BME280;12598;62.382;17.344;2024-03-17T01:59:48;101949.47;;;18.80;17.46
13478;BME280;12598;62.382;17.344;2024-03-17T02:00:49;101954.84;;;18.80;17.53
13478;BME280;12598;62.382;17.344;2024-03-17T02:01:50;101950.34;;;18.81;17.64
13478;BME280;12598;62.382;17.344;2024-03-17T02:02:51;101961.06;;;18.81;17.73
13478;BME280;12598;62.382;17.344;2024-03-17T02:03:52;101959.34;;;18.80;17.45
13478;BME280;12598;62.382;17.344;2024-03-17T02:04:53;101954.00;;;18.80;17.91
13478;BME280;12598;62.382;17.344;2024-03-17T02:05:54;101921.84;;;18.58;17.75
13478;BME280;12598;62.382;17.344;2024-03-17T02:06:55;101964.81;;;18.78;17.46
13478;BME280;12598;62.382;17.344;2024-03-17T02:07:56;101955.94;;;18.78;17.78
13478;BME280;12598;62.382;17.344;2024-03-17T02:08:57;101961.31;;;18.78;17.44
13478;BME280;12598;62.382;17.344;2024-03-17T02:09:57;101964.81;;;18.78;17.39
13478;BME280;12598;62.382;17.344;2024-03-17T02:10:58;101971.06;;;18.79;17.77
13478;BME280;12598;62.382;17.344;2024-03-17T02:11:59;101969.22;;;18.79;17.96
13478;BME280;12598;62.382;17.344;2024-03-17T02:13:01;101976.53;;;18.77;17.42
13478;BME280;12598;62.382;17.344;2024-03-17T02:14:04;101978.13;;;18.80;17.66
13478;BME280;12598;62.382;17.344;2024-03-17T02:15:07;101984.44;;;18.79;17.96
13478;BME280;12598;62.382;17.344;2024-03-17T02:16:08;101972.38;;;18.73;17.66
13478;BME280;12598;62.382;17.344;2024-03-17T02:17:09;101974.22;;;18.73;17.73
13478;BME280;12598;62.382;17.344;2024-03-17T02:18:10;101977.38;;;18.78;18.09
13478;BME280;12598;62.382;17.344;2024-03-17T02:19:11;101970.56;;;18.74;17.78
13478;BME280;12598;62.382;17.344;2024-03-17T02:20:12;101991.75;;;18.77;17.78
13478;BME280;12598;62.382;17.344;2024-03-17T02:21:15;101981.28;;;18.74;17.75
13478;BME280;12598;62.382;17.344;2024-03-17T02:22:16;101981.41;;;18.72;17.75
13478;BME280;12598;62.382;17.344;2024-03-17T02:23:17;101989.44;;;18.72;17.55
13478;BME280;12598;62.382;17.344;2024-03-17T02:24:19;101981.75;;;18.68;17.81
13478;BME280;12598;62.382;17.344;2024-03-17T02:25:20;101996.38;;;18.75;17.90
13478;BME280;12598;62.382;17.344;2024-03-17T02:26:22;102002.47;;;18.77;17.88
13478;BME280;12598;62.382;17.344;2024-03-17T02:27:23;101987.47;;;18.74;17.45
13478;BME280;12598;62.382;17.344;2024-03-17T02:28:24;101989.31;;;18.74;17.50
13478;BME280;12598;62.382;17.344;2024-03-17T02:29:25;101993.72;;;18.75;17.89
13478;BME280;12598;62.382;17.344;2024-03-17T02:30:26;101997.13;;;18.77;17.61
13478;BME280;12598;62.382;17.344;2024-03-17T02:31:26;101998.19;;;18.74;17.45
13478;BME280;12598;62.382;17.344;2024-03-17T02:32:28;102001.75;;;18.75;17.71
13478;BME280;12598;62.382;17.344;2024-03-17T02:33:29;102002.72;;;18.74;17.40
13478;BME280;12598;62.382;17.344;2024-03-17T02:34:30;101996.63;;;18.72;17.46
13478;BME280;12598;62.382;17.344;2024-03-17T02:35:30;101990.50;;;18.70;17.67
13478;BME280;12598;62.382;17.344;2024-03-17T02:36:31;101993.69;;;18.64;17.45
13478;BME280;12598;62.382;17.344;2024-03-17T02:37:32;102006.72;;;18.68;17.51
13478;BME280;12598;62.382;17.344;2024-03-17T02:38:33;102018.81;;;18.74;18.05
13478;BME280;12598;62.382;17.344;2024-03-17T02:39:53;102009.53;;;18.78;17.38
13478;BME280;12598;62.382;17.344;2024-03-17T02:40:54;102007.84;;;18.77;17.41
13478;BME280;12598;62.382;17.344;2024-03-17T02:41:55;102012.56;;;18.73;17.60
13478;BME280;12598;62.382;17.344;2024-03-17T02:42:56;102021.47;;;18.74;17.43
13478;BME280;12598;62.382;17.344;2024-03-17T02:43:57;102012.19;;;18.67;17.54
13478;BME280;12598;62.382;17.344;2024-03-17T02:44:58;102013.06;;;18.67;17.72
13478;BME280;12598;62.382;17.344;2024-03-17T02:45:58;102018.91;;;18.72;17.41
13478;BME280;12598;62.382;17.344;2024-03-17T02:47:00;102020.00;;;18.70;17.43
13478;BME280;12598;62.382;17.344;2024-03-17T02:48:01;102026.13;;;18.72;17.86
13478;BME280;12598;62.382;17.344;2024-03-17T02:49:02;102019.88;;;18.71;17.35
13478;BME280;12598;62.382;17.344;2024-03-17T02:50:03;102024.38;;;18.71;17.81
13478;BME280;12598;62.382;17.344;2024-03-17T02:51:05;102021.22;;;18.66;17.65
13478;BME280;12598;62.382;17.344;2024-03-17T02:52:07;102015.59;;;18.69;17.81
13478;BME280;12598;62.382;17.344;2024-03-17T02:53:12;102032.41;;;18.71;17.43
13478;BME280;12598;62.382;17.344;2024-03-17T02:54:12;102026.31;;;18.69;17.55
13478;BME280;12598;62.382;17.344;2024-03-17T02:55:13;102037.91;;;18.69;17.68
13478;BME280;12598;62.382;17.344;2024-03-17T02:56:15;102040.59;;;18.69;17.35
13478;BME280;12598;62.382;17.344;2024-03-17T02:57:19;102039.72;;;18.69;17.54
13478;BME280;12598;62.382;17.344;2024-03-17T02:58:21;102033.53;;;18.68;17.62
13478;BME280;12598;62.382;17.344;2024-03-17T02:59:22;102036.31;;;18.67;17.36
13478;BME280;12598;62.382;17.344;2024-03-17T03:00:23;102039.84;;;18.67;17.38
13478;BME280;12598;62.382;17.344;2024-03-17T03:01:26;102039.22;;;18.64;17.55
13478;BME280;12598;62.382;17.344;2024-03-17T03:02:27;102044.34;;;18.67;17.72
13478;BME280;12598;62.382;17.344;2024-03-17T03:03:27;102042.88;;;18.63;17.46
13478;BME280;12598;62.382;17.344;2024-03-17T03:04:28;102057.00;;;18.65;17.46
13478;BME280;12598;62.382;17.344;2024-03-17T03:05:29;102059.69;;;18.65;18.06
13478;BME280;12598;62.382;17.344;2024-03-17T03:06:32;102045.06;;;18.58;17.68
13478;BME280;12598;62.382;17.344;2024-03-17T03:07:34;102061.41;;;18.66;17.99
13478;BME280;12598;62.382;17.344;2024-03-17T03:08:35;102060.56;;;18.65;17.45
13478;BME280;12598;62.382;17.344;2024-03-17T03:09:39;102068.59;;;18.65;17.52
13478;BME280;12598;62.382;17.344;2024-03-17T03:10:44;102061.63;;;18.63;17.23
13478;BME280;12598;62.382;17.344;2024-03-17T03:11:45;102078.44;;;18.65;17.41
13478;BME280;12598;62.382;17.344;2024-03-17T03:12:45;102072.25;;;18.64;17.39
13478;BME280;12598;62.382;17.344;2024-03-17T03:13:46;102069.31;;;18.56;17.49
13478;BME280;12598;62.382;17.344;2024-03-17T03:14:47;102075.91;;;18.63;17.65
13478;BME280;12598;62.382;17.344;2024-03-17T03:15:49;102073.72;;;18.57;17.60
13478;BME280;12598;62.382;17.344;2024-03-17T03:16:49;102077.94;;;18.60;17.59
13478;BME280;12598;62.382;17.344;2024-03-17T03:17:50;102082.34;;;18.61;17.49
13478;BME280;12598;62.382;17.344;2024-03-17T03:18:51;102079.91;;;18.58;17.36
13478;BME280;12598;62.382;17.344;2024-03-17T03:19:52;102080.03;;;18.56;17.31
13478;BME280;12598;62.382;17.344;2024-03-17T03:20:53;102090.50;;;18.59;17.12
13478;BME280;12598;62.382;17.344;2024-03-17T03:21:54;102078.56;;;18.52;17.54
13478;BME280;12598;62.382;17.344;2024-03-17T03:22:55;102095.00;;;18.59;17.64
13478;BME280;12598;62.382;17.344;2024-03-17T03:23:57;102090.38;;;18.50;17.71
13478;BME280;12598;62.382;17.344;2024-03-17T03:24:57;102093.53;;;18.55;17.45
13478;BME280;12598;62.382;17.344;2024-03-17T03:25:59;102101.34;;;18.58;17.42
13478;BME280;12598;62.382;17.344;2024-03-17T03:27:00;102104.25;;;18.55;17.64
13478;BME280;12598;62.382;17.344;2024-03-17T03:28:01;102102.31;;;18.57;17.12
13478;BME280;12598;62.382;17.344;2024-03-17T03:29:03;102103.28;;;18.56;17.70
13478;BME280;12598;62.382;17.344;2024-03-17T03:30:05;102086.09;;;18.47;17.56
13478;BME280;12598;62.382;17.344;2024-03-17T03:31:12;102108.63;;;18.56;17.45
13478;BME280;12598;62.382;17.344;2024-03-17T03:32:14;102108.13;;;18.51;17.48
13478;BME280;12598;62.382;17.344;2024-03-17T03:33:14;102117.41;;;18.58;17.36
13478;BME280;12598;62.382;17.344;2024-03-17T03:34:15;102118.00;;;18.50;17.25
13478;BME280;12598;62.382;17.344;2024-03-17T03:35:16;102124.72;;;18.56;17.69
13478;BME280;12598;62.382;17.344;2024-03-17T03:36:17;102093.25;;;18.36;17.48
13478;BME280;12598;62.382;17.344;2024-03-17T03:37:19;102131.03;;;18.55;17.43
13478;BME280;12598;62.382;17.344;2024-03-17T03:38:20;102137.25;;;18.55;17.35
13478;BME280;12598;62.382;17.344;2024-03-17T03:39:20;102129.81;;;18.48;17.40
13478;BME280;12598;62.382;17.344;2024-03-17T03:40:21;102134.19;;;18.49;17.66
13478;BME280;12598;62.382;17.344;2024-03-17T03:41:23;102136.53;;;18.53;17.60
13478;BME280;12598;62.382;17.344;2024-03-17T03:42:25;102144.44;;;18.55;17.32
13478;BME280;12598;62.382;17.344;2024-03-17T03:43:26;102147.13;;;18.55;17.12
13478;BME280;12598;62.382;17.344;2024-03-17T03:44:28;102146.28;;;18.54;17.64
13478;BME280;12598;62.382;17.344;2024-03-17T03:45:29;102155.28;;;18.53;17.51
13478;BME280;12598;62.382;17.344;2024-03-17T03:46:30;102155.28;;;18.53;17.54
13478;BME280;12598;62.382;17.344;2024-03-17T03:47:32;102159.78;;;18.53;17.04
13478;BME280;12598;62.382;17.344;2024-03-17T03:48:33;102156.47;;;18.49;17.66
13478;BME280;12598;62.382;17.344;2024-03-17T03:49:35;102159.91;;;18.51;17.53
13478;BME280;12598;62.382;17.344;2024-03-17T03:50:37;102164.28;;;18.52;17.54
13478;BME280;12598;62.382;17.344;2024-03-17T03:51:39;102143.78;;;18.40;17.33
13478;BME280;12598;62.382;17.344;2024-03-17T03:52:40;102165.13;;;18.53;17.38
13478;BME280;12598;62.382;17.344;2024-03-17T03:53:42;102174.03;;;18.53;17.29
13478;BME280;12598;62.382;17.344;2024-03-17T03:54:43;102169.66;;;18.52;17.78
13478;BME280;12598;62.382;17.344;2024-03-17T03:55:43;102170.47;;;18.53;17.36
13478;BME280;12598;62.382;17.344;2024-03-17T03:56:44;102167.81;;;18.53;17.96
13478;BME280;12598;62.382;17.344;2024-03-17T03:57:45;102167.94;;;18.51;17.46
13478;BME280;12598;62.382;17.344;2024-03-17T03:58:49;102163.75;;;18.47;17.76
13478;BME280;12598;62.382;17.344;2024-03-17T03:59:50;102175.97;;;18.51;17.53
13478;BME280;12598;62.382;17.344;2024-03-17T04:00:51;102168.78;;;18.52;17.77
13478;BME280;12598;62.382;17.344;2024-03-17T04:01:52;102176.81;;;18.52;17.30
13478;BME280;12598;62.382;17.344;2024-03-17T04:02:53;102168.38;;;18.45;17.66
13478;BME280;12598;62.382;17.344;2024-03-17T04:03:54;102173.41;;;18.50;17.37
13478;BME280;12598;62.382;17.344;2024-03-17T04:04:55;102182.31;;;18.50;17.31
13478;BME280;12598;62.382;17.344;2024-03-17T04:06:09;102183.88;;;18.53;17.25
13478;BME280;12598;62.382;17.344;2024-03-17T04:07:11;102188.25;;;18.54;17.56
13478;BME280;12598;62.382;17.344;2024-03-17T04:08:12;102190.22;;;18.52;17.57
13478;BME280;12598;62.382;17.344;2024-03-17T04:09:13;102187.66;;;18.50;17.16
13478;BME280;12598;62.382;17.344;2024-03-17T04:10:15;102185.09;;;18.49;17.45
13478;BME280;12598;62.382;17.344;2024-03-17T04:11:16;102189.47;;;18.50;17.75
13478;BME280;12598;62.382;17.344;2024-03-17T04:12:17;102184.34;;;18.47;17.61
13478;BME280;12598;62.382;17.344;2024-03-17T04:13:19;102184.22;;;18.48;17.39
13478;BME280;12598;62.382;17.344;2024-03-17T04:14:20;102189.56;;;18.48;17.56
13478;BME280;12598;62.382;17.344;2024-03-17T04:15:21;102187.88;;;18.47;17.66
13478;BME280;12598;62.382;17.344;2024-03-17T04:16:22;102192.38;;;18.47;17.20
13478;BME280;12598;62.382;17.344;2024-03-17T04:17:23;102186.16;;;18.46;17.44
13478;BME280;12598;62.382;17.344;2024-03-17T04:18:25;102197.75;;;18.47;17.42
13478;BME280;12598;62.382;17.344;2024-03-17T04:19:26;102197.59;;;18.48;16.94
13478;BME280;12598;62.382;17.344;2024-03-17T04:20:27;102208.44;;;18.47;17.45
13478;BME280;12598;62.382;17.344;2024-03-17T04:21:28;102197.75;;;18.47;17.85
13478;BME280;12598;62.382;17.344;2024-03-17T04:22:29;102197.75;;;18.47;16.99
13478;BME280;12598;62.382;17.344;2024-03-17T04:23:30;102206.75;;;18.46;17.54
13478;BME280;12598;62.382;17.344;2024-03-17T04:24:32;102204.16;;;18.44;17.68
13478;BME280;12598;62.382;17.344;2024-03-17T04:25:34;102197.56;;;18.37;17.55
13478;BME280;12598;62.382;17.344;2024-03-17T04:26:35;102217.56;;;18.44;17.25
13478;BME280;12598;62.382;17.344;2024-03-17T04:27:35;102205.50;;;18.39;17.44
13478;BME280;12598;62.382;17.344;2024-03-17T04:28:37;102219.41;;;18.44;17.35
13478;BME280;12598;62.382;17.344;2024-03-17T04:29:38;102215.84;;;18.43;17.12
13478;BME280;12598;62.382;17.344;2024-03-17T04:30:40;102215.84;;;18.43;17.21
13478;BME280;12598;62.382;17.344;2024-03-17T04:31:41;102215.00;;;18.43;17.25
13478;BME280;12598;62.382;17.344;2024-03-17T04:32:43;102221.34;;;18.42;17.47
13478;BME280;12598;62.382;17.344;2024-03-17T04:33:44;102223.28;;;18.40;17.33
13478;BME280;12598;62.382;17.344;2024-03-17T04:34:44;102219.63;;;18.41;17.30
13478;BME280;12598;62.382;17.344;2024-03-17T04:35:45;102221.56;;;18.39;17.26
13478;BME280;12598;62.382;17.344;2024-03-17T04:36:47;102222.31;;;18.41;17.13
13478;BME280;12598;62.382;17.344;2024-03-17T04:37:48;102225.00;;;18.41;17.37
13478;BME280;12598;62.382;17.344;2024-03-17T04:38:48;102228.63;;;18.40;17.60
13478;BME280;12598;62.382;17.344;2024-03-17T04:39:49;102221.06;;;18.34;17.57
13478;BME280;12598;62.382;17.344;2024-03-17T04:40:53;102235.94;;;18.38;17.55
13478;BME280;12598;62.382;17.344;2024-03-17T04:42:05;102235.69;;;18.41;17.26
13478;BME280;12598;62.382;17.344;2024-03-17T04:43:07;102241.91;;;18.41;17.13
13478;BME280;12598;62.382;17.344;2024-03-17T04:44:08;102240.19;;;18.40;17.14
13478;BME280;12598;62.382;17.344;2024-03-17T04:45:09;102232.50;;;18.36;17.60
13478;BME280;12598;62.382;17.344;2024-03-17T04:46:10;102232.28;;;18.39;17.54
13478;BME280;12598;62.382;17.344;2024-03-17T04:47:13;102243.97;;;18.38;17.69
13478;BME280;12598;62.382;17.344;2024-03-17T04:48:14;102243.97;;;18.38;17.49
13478;BME280;12598;62.382;17.344;2024-03-17T04:49:15;102249.31;;;18.38;17.62
13478;BME280;12598;62.382;17.344;2024-03-17T04:50:16;102244.94;;;18.37;17.51
13478;BME280;12598;62.382;17.344;2024-03-17T04:51:17;102252.97;;;18.37;17.58
13478;BME280;12598;62.382;17.344;2024-03-17T04:52:18;102251.25;;;18.36;17.41
13478;BME280;12598;62.382;17.344;2024-03-17T04:53:19;102254.78;;;18.36;17.29
13478;BME280;12598;62.382;17.344;2024-03-17T04:54:20;102259.16;;;18.37;17.22
13478;BME280;12598;62.382;17.344;2024-03-17T04:55:21;102260.25;;;18.35;17.21
13478;BME280;12598;62.382;17.344;2024-03-17T04:56:22;102268.31;;;18.35;17.42
13478;BME280;12598;62.382;17.344;2024-03-17T04:57:24;102259.41;;;18.34;17.33
13478;BME280;12598;62.382;17.344;2024-03-17T04:58:24;102266.47;;;18.35;17.41
13478;BME280;12598;62.382;17.344;2024-03-17T04:59:25;102259.84;;;18.28;17.33
13478;BME280;12598;62.382;17.344;2024-03-17T05:00:26;102263.41;;;18.29;17.46
13478;BME280;12598;62.382;17.344;2024-03-17T05:01:27;102266.81;;;18.31;17.15
13478;BME280;12598;62.382;17.344;2024-03-17T05:02:28;102255.56;;;18.26;17.29
13478;BME280;12598;62.382;17.344;2024-03-17T05:03:29;102267.56;;;18.33;17.19
13478;BME280;12598;62.382;17.344;2024-03-17T05:04:30;102273.75;;;18.33;16.96
13478;BME280;12598;62.382;17.344;2024-03-17T05:05:31;102272.91;;;18.33;17.30
13478;BME280;12598;62.382;17.344;2024-03-17T05:06:32;102282.66;;;18.34;17.16
13478;BME280;12598;62.382;17.344;2024-03-17T05:07:33;102276.00;;;18.27;17.24
13478;BME280;12598;62.382;17.344;2024-03-17T05:08:34;102280.06;;;18.32;17.20
13478;BME280;12598;62.382;17.344;2024-03-17T05:09:37;102283.63;;;18.33;17.18
13478;BME280;12598;62.382;17.344;2024-03-17T05:10:38;102286.31;;;18.33;17.00
13478;BME280;12598;62.382;17.344;2024-03-17T05:11:40;102281.19;;;18.30;17.68
13478;BME280;12598;62.382;17.344;2024-03-17T05:12:41;102274.31;;;18.26;17.10
13478;BME280;12598;62.382;17.344;2024-03-17T05:13:42;102282.88;;;18.31;17.39
13478;BME280;12598;62.382;17.344;2024-03-17T05:14:43;102288.25;;;18.31;17.09
13478;BME280;12598;62.382;17.344;2024-03-17T05:15:44;102298.09;;;18.30;17.18
13478;BME280;12598;62.382;17.344;2024-03-17T05:16:45;102291.31;;;18.25;17.51
13478;BME280;12598;62.382;17.344;2024-03-17T05:17:48;102291.88;;;18.30;16.92